createdAt,value
2022-09-21T00:02:46.621Z,11.30
2022-09-21T00:06:47.690Z,11.00
2022-09-21T00:10:49.780Z,11.20
2022-09-21T00:14:50.745Z,11.30
2022-09-21T00:18:52.116Z,11.20
2022-09-21T00:22:53.258Z,11.10
2022-09-21T00:26:56.229Z,10.80
2022-09-21T00:31:03.091Z,11.00
2022-09-21T00:35:07.031Z,10.80
2022-09-21T00:39:09.346Z,10.80
2022-09-21T00:43:15.480Z,10.70
2022-09-21T00:47:39.339Z,10.60
2022-09-21T00:51:41.542Z,10.50
2022-09-21T00:55:46.387Z,10.40
2022-09-21T00:59:51.380Z,10.50
2022-09-21T01:03:53.153Z,10.40
2022-09-21T01:07:56.426Z,10.30
2022-09-21T01:12:26.706Z,10.40
2022-09-21T01:16:34.727Z,10.20
2022-09-21T01:21:10.637Z,9.80
2022-09-21T01:25:32.475Z,9.70
2022-09-21T01:29:46.531Z,10.20
2022-09-21T01:33:51.328Z,10.30
2022-09-21T01:38:05.277Z,10.20
2022-09-21T01:42:08.199Z,10.10
2022-09-21T01:46:13.214Z,9.80
2022-09-21T01:50:16.315Z,10.00
2022-09-21T01:54:20.990Z,10.10
2022-09-21T01:58:26.395Z,10.10
2022-09-21T02:02:43.525Z,9.90
2022-09-21T02:06:47.452Z,9.90
2022-09-21T02:10:51.292Z,9.90
2022-09-21T02:14:56.554Z,10.00
2022-09-21T02:19:24.218Z,9.80
2022-09-21T02:23:29.034Z,9.70
2022-09-21T02:27:51.990Z,9.70
2022-09-21T02:32:11.763Z,9.70
2022-09-21T02:36:22.811Z,9.60
2022-09-21T02:40:29.903Z,9.50
2022-09-21T02:44:38.378Z,9.50
2022-09-21T02:48:52.141Z,9.40
2022-09-21T02:52:54.311Z,9.30
2022-09-21T02:56:57.710Z,9.30
2022-09-21T03:00:59.338Z,9.30
2022-09-21T03:05:00.460Z,9.20
2022-09-21T03:09:01.524Z,9.30
2022-09-21T03:13:03.072Z,9.20
2022-09-21T03:17:04.093Z,9.20
2022-09-21T03:21:05.817Z,9.20
2022-09-21T03:25:09.686Z,9.20
2022-09-21T03:29:10.833Z,9.10
2022-09-21T03:33:12.469Z,9.00
2022-09-21T03:37:13.472Z,8.90
2022-09-21T03:41:14.580Z,8.90
2022-09-21T03:45:15.761Z,9.30
2022-09-21T03:49:17.611Z,9.30
2022-09-21T03:53:18.492Z,9.10
2022-09-21T03:57:19.445Z,9.10
2022-09-21T04:01:20.510Z,8.90
2022-09-21T04:05:22.470Z,9.00
2022-09-21T04:09:23.540Z,8.90
2022-09-21T04:13:24.483Z,8.80
2022-09-21T04:17:25.538Z,8.90
2022-09-21T04:21:26.544Z,8.80
2022-09-21T04:25:28.112Z,8.60
2022-09-21T04:29:29.487Z,8.80
2022-09-21T04:33:30.582Z,8.70
2022-09-21T04:37:32.228Z,8.60
2022-09-21T04:41:33.387Z,8.40
2022-09-21T04:45:34.805Z,8.60
2022-09-21T04:49:35.901Z,8.60
2022-09-21T04:53:39.259Z,8.40
2022-09-21T04:57:40.227Z,8.60
2022-09-21T05:01:41.470Z,8.40
2022-09-21T05:05:51.907Z,8.30
2022-09-21T05:10:05.557Z,8.70
2022-09-21T05:14:07.130Z,8.50
2022-09-21T05:18:08.127Z,8.40
2022-09-21T05:22:09.204Z,8.30
2022-09-21T05:26:10.233Z,8.60
2022-09-21T05:30:12.439Z,8.60
2022-09-21T05:34:32.980Z,7.90
2022-09-21T05:38:34.078Z,8.60
2022-09-21T05:42:35.497Z,8.60
2022-09-21T05:46:40.498Z,8.90
2022-09-21T05:51:00.309Z,8.90
2022-09-21T05:55:26.529Z,9.10
2022-09-21T05:59:51.978Z,9.30
2022-09-21T06:03:55.234Z,8.80
2022-09-21T06:07:58.180Z,9.40
2022-09-21T06:11:59.255Z,9.80
2022-09-21T06:16:04.247Z,10.00
2022-09-21T06:20:06.847Z,10.40
2022-09-21T06:24:08.010Z,10.60
2022-09-21T06:28:11.838Z,10.80
2022-09-21T06:32:13.164Z,10.90
2022-09-21T06:36:15.281Z,11.20
2022-09-21T06:40:16.270Z,11.60
2022-09-21T06:44:17.497Z,12.10
2022-09-21T06:48:18.624Z,12.30
2022-09-21T06:52:19.571Z,12.80
2022-09-21T06:56:20.526Z,13.30
2022-09-21T07:00:21.520Z,13.60
2022-09-21T07:04:25.224Z,13.90
2022-09-21T07:12:29.331Z,14.80
2022-09-21T07:16:30.417Z,14.90
2022-09-21T07:20:31.698Z,15.30
2022-09-21T07:24:32.786Z,15.30
2022-09-21T07:28:34.677Z,16.00
2022-09-21T07:32:35.934Z,16.10
2022-09-21T07:36:36.919Z,16.10
2022-09-21T07:40:37.957Z,15.30
2022-09-21T07:44:39.019Z,14.20
2022-09-21T07:48:40.329Z,13.30
2022-09-21T07:52:41.508Z,12.80
2022-09-21T07:56:44.419Z,11.20
2022-09-21T08:00:45.451Z,11.50
2022-09-21T08:04:46.623Z,12.60
2022-09-21T08:08:48.035Z,12.50
2022-09-21T08:12:49.583Z,11.80
2022-09-21T08:16:50.663Z,11.70
2022-09-21T08:20:59.979Z,12.10
2022-09-21T08:25:01.065Z,13.60
2022-09-21T08:29:02.964Z,13.30
2022-09-21T08:33:04.198Z,12.70
2022-09-21T08:37:05.235Z,12.80
2022-09-21T08:41:19.425Z,13.20
2022-09-21T08:45:21.522Z,13.80
2022-09-21T08:49:25.798Z,13.60
2022-09-21T08:53:40.076Z,14.30
2022-09-21T08:57:41.013Z,14.40
2022-09-21T09:01:45.900Z,13.20
2022-09-21T09:05:50.768Z,14.90
2022-09-21T09:09:58.427Z,14.20
2022-09-21T09:14:15.573Z,14.70
2022-09-21T09:18:26.760Z,15.90
2022-09-21T09:22:40.893Z,15.40
2022-09-21T09:26:45.729Z,15.10
2022-09-21T09:30:49.130Z,15.40
2022-09-21T09:34:54.074Z,14.70
2022-09-21T09:38:57.685Z,14.10
2022-09-21T09:43:04.951Z,14.00
2022-09-21T09:47:18.512Z,14.00
2022-09-21T09:51:19.522Z,14.30
2022-09-21T09:55:26.196Z,14.70
2022-09-21T09:59:35.068Z,14.10
2022-09-21T10:03:36.698Z,15.10
2022-09-21T10:07:45.204Z,16.00
2022-09-21T10:11:47.422Z,15.30
2022-09-21T10:15:51.766Z,14.20
2022-09-21T10:20:00.524Z,15.10
2022-09-21T10:24:20.980Z,15.00
2022-09-21T10:28:26.361Z,15.50
2022-09-21T10:32:32.855Z,14.70
2022-09-21T10:36:36.677Z,15.20
2022-09-21T10:40:39.086Z,14.60
2022-09-21T10:44:43.413Z,14.90
2022-09-21T10:48:45.928Z,16.00
2022-09-21T10:52:48.311Z,15.30
2022-09-21T10:56:52.286Z,17.00
2022-09-21T11:00:54.868Z,15.40
2022-09-21T11:05:02.467Z,16.50
2022-09-21T11:09:21.988Z,16.40
2022-09-21T11:13:26.910Z,15.80
2022-09-21T11:17:52.721Z,15.50
2022-09-21T11:22:03.483Z,15.50
2022-09-21T11:26:11.027Z,16.90
2022-09-21T11:30:15.344Z,17.30
2022-09-21T11:34:26.416Z,14.90
2022-09-21T11:38:58.625Z,15.60
2022-09-21T11:43:22.911Z,15.50
2022-09-21T11:47:58.331Z,16.30
2022-09-21T11:52:27.623Z,15.90
2022-09-21T11:56:40.562Z,16.00
2022-09-21T12:00:56.642Z,16.60
2022-09-21T12:05:17.271Z,16.10
2022-09-21T12:09:33.947Z,17.20
2022-09-21T12:14:01.537Z,17.70
2022-09-21T12:18:09.494Z,17.20
2022-09-21T12:22:15.110Z,19.20
2022-09-21T12:26:25.971Z,17.40
2022-09-21T12:30:30.809Z,17.90
2022-09-21T12:34:41.463Z,19.30
2022-09-21T12:39:03.382Z,16.70
2022-09-21T12:43:11.809Z,17.70
2022-09-21T12:47:14.262Z,17.20
2022-09-21T12:51:37.644Z,17.10
2022-09-21T12:56:13.802Z,17.50
2022-09-21T13:00:19.173Z,18.40
2022-09-21T13:04:42.277Z,17.10
2022-09-21T13:08:46.385Z,17.50
2022-09-21T13:12:52.482Z,16.40
2022-09-21T13:17:00.533Z,16.30
2022-09-21T13:21:17.926Z,16.00
2022-09-21T13:25:26.809Z,18.80
2022-09-21T13:29:32.292Z,19.40
2022-09-21T13:33:39.099Z,19.70
2022-09-21T13:37:40.191Z,21.40
2022-09-21T13:42:01.785Z,20.20
2022-09-21T13:45:53.714Z,18.00
2022-09-21T13:50:00.350Z,18.90
2022-09-21T13:54:01.520Z,18.50
2022-09-21T13:58:05.906Z,18.80
2022-09-21T14:02:19.934Z,20.20
2022-09-21T14:06:25.073Z,18.90
2022-09-21T14:10:27.755Z,20.70
2022-09-21T14:14:32.414Z,22.40
2022-09-21T14:18:37.422Z,19.70
2022-09-21T14:22:40.238Z,18.30
2022-09-21T14:26:45.047Z,18.30
2022-09-21T14:30:52.657Z,17.60
2022-09-21T14:34:57.476Z,18.90
2022-09-21T14:39:02.299Z,18.20
2022-09-21T14:43:09.598Z,17.40
2022-09-21T14:47:20.410Z,18.20
2022-09-21T14:52:20.215Z,18.70
2022-09-21T14:56:09.009Z,19.30
2022-09-21T15:00:21.524Z,18.80
2022-09-21T15:04:32.352Z,19.40
2022-09-21T15:08:58.754Z,19.80
2022-09-21T15:13:04.480Z,19.20
2022-09-21T15:17:28.569Z,18.40
2022-09-21T15:21:32.518Z,18.40
2022-09-21T15:25:33.720Z,19.30
2022-09-21T15:29:36.981Z,20.00
2022-09-21T15:33:38.749Z,20.90
2022-09-21T15:37:39.944Z,21.20
2022-09-21T15:41:47.101Z,21.70
2022-09-21T15:45:58.713Z,20.50
2022-09-21T15:49:59.931Z,19.90
2022-09-21T15:54:11.133Z,20.80
2022-09-21T15:58:36.697Z,17.30
2022-09-21T16:02:39.707Z,17.10
2022-09-21T16:06:43.977Z,17.60
2022-09-21T16:10:45.437Z,16.90
2022-09-21T16:14:53.050Z,17.20
2022-09-21T16:18:55.960Z,16.90
2022-09-21T16:23:07.045Z,17.20
2022-09-21T16:27:11.960Z,17.00
2022-09-21T16:31:31.564Z,17.30
2022-09-21T16:35:36.440Z,16.80
2022-09-21T16:39:37.428Z,17.30
2022-09-21T16:43:40.315Z,17.50
2022-09-21T16:47:41.374Z,17.00
2022-09-21T16:51:42.442Z,17.00
2022-09-21T16:55:45.421Z,16.10
2022-09-21T16:59:47.379Z,16.20
2022-09-21T17:03:48.561Z,16.20
2022-09-21T17:07:55.003Z,16.80
2022-09-21T17:11:58.531Z,16.60
2022-09-21T17:16:00.209Z,17.60
2022-09-21T17:20:05.313Z,17.60
2022-09-21T17:24:06.837Z,17.30
2022-09-21T17:28:14.411Z,16.30
2022-09-21T17:32:21.431Z,16.00
2022-09-21T17:36:22.539Z,16.70
2022-09-21T17:40:24.317Z,16.60
2022-09-21T17:44:41.409Z,16.80
2022-09-21T17:48:42.928Z,17.00
2022-09-21T17:53:02.927Z,16.70
2022-09-21T17:57:13.857Z,16.80
2022-09-21T18:01:30.883Z,16.40
2022-09-21T18:05:32.299Z,16.00
2022-09-21T18:09:33.929Z,15.90
2022-09-21T18:13:55.568Z,15.70
2022-09-21T18:18:09.266Z,16.10
2022-09-21T18:22:16.970Z,15.50
2022-09-21T18:26:19.995Z,15.00
2022-09-21T18:30:21.385Z,14.90
2022-09-21T18:34:38.504Z,15.10
2022-09-21T18:39:05.697Z,15.60
2022-09-21T18:43:27.520Z,15.60
2022-09-21T18:47:58.933Z,15.60
2022-09-21T18:52:16.487Z,15.30
2022-09-21T18:56:18.136Z,15.20
2022-09-21T19:00:20.304Z,15.10
2022-09-21T19:04:21.853Z,14.90
2022-09-21T19:08:26.653Z,14.40
2022-09-21T19:12:48.402Z,14.50
2022-09-21T19:17:11.519Z,14.80
2022-09-21T19:21:33.078Z,14.70
2022-09-21T19:25:41.681Z,14.50
2022-09-21T19:30:03.748Z,14.30
2022-09-21T19:34:17.001Z,14.30
2022-09-21T19:38:18.561Z,14.40
2022-09-21T19:42:30.415Z,14.30
2022-09-21T19:46:35.386Z,14.10
2022-09-21T19:50:44.824Z,14.00
2022-09-21T19:55:04.736Z,14.00
2022-09-21T19:59:26.564Z,13.80
2022-09-21T20:03:35.038Z,13.60
2022-09-21T20:11:58.243Z,13.30
2022-09-21T20:16:03.201Z,13.10
2022-09-21T20:20:13.776Z,13.20
2022-09-21T20:24:24.599Z,13.30
2022-09-21T20:28:26.135Z,13.00
2022-09-21T20:32:27.343Z,13.20
2022-09-21T20:36:28.657Z,13.10
2022-09-21T20:40:31.273Z,13.00
2022-09-21T20:44:32.252Z,13.00
2022-09-21T20:48:33.183Z,12.90
2022-09-21T20:52:34.217Z,12.80
2022-09-21T20:56:35.214Z,12.70
2022-09-21T21:00:37.120Z,12.20
2022-09-21T21:04:38.891Z,12.20
2022-09-21T21:08:42.286Z,12.60
2022-09-21T21:12:43.070Z,12.60
2022-09-21T21:16:44.013Z,12.40
2022-09-21T21:20:45.051Z,12.30
2022-09-21T21:24:47.244Z,12.20
2022-09-21T21:28:50.296Z,11.70
2022-09-21T21:32:52.487Z,12.10
2022-09-21T21:36:53.531Z,12.00
2022-09-21T21:40:55.156Z,11.70
2022-09-21T21:44:56.334Z,11.70
2022-09-21T21:48:57.421Z,11.40
2022-09-21T21:52:58.460Z,11.70
2022-09-21T21:57:00.635Z,11.70
2022-09-21T22:01:14.362Z,11.00
2022-09-21T22:05:15.333Z,11.70
2022-09-21T22:09:17.982Z,11.70
2022-09-21T22:13:19.400Z,11.50
2022-09-21T22:17:20.429Z,11.40
2022-09-21T22:21:25.542Z,11.30
2022-09-21T22:25:27.668Z,11.20
2022-09-21T22:29:28.629Z,11.20
2022-09-21T22:33:33.325Z,11.10
2022-09-21T22:37:34.458Z,11.00
2022-09-21T22:41:37.494Z,10.80
2022-09-21T22:45:38.429Z,11.00
2022-09-21T22:49:39.529Z,11.00
2022-09-21T22:53:40.683Z,10.90
2022-09-21T22:57:41.679Z,10.80
2022-09-21T23:01:42.670Z,10.80
2022-09-21T23:05:43.952Z,10.70
2022-09-21T23:09:44.914Z,10.60
2022-09-21T23:13:45.969Z,10.00
2022-09-21T23:17:47.115Z,10.20
2022-09-21T23:21:49.886Z,10.60
2022-09-21T23:26:12.584Z,10.80
2022-09-21T23:30:16.173Z,10.80
2022-09-21T23:34:17.163Z,10.60
2022-09-21T23:38:18.189Z,10.50
2022-09-21T23:42:19.089Z,10.30
2022-09-21T23:46:23.242Z,10.30
2022-09-21T23:50:24.267Z,10.30
2022-09-21T23:54:25.232Z,10.20
2022-09-21T23:58:26.873Z,10.10
